createdAt,value
2023-02-06T00:00:35.871Z,5.03
2023-02-06T00:05:27.878Z,5.10
2023-02-06T00:10:19.912Z,5.95
2023-02-06T00:15:11.707Z,4.55
2023-02-06T00:20:09.469Z,4.82
2023-02-06T00:25:01.323Z,5.00
2023-02-06T00:29:53.379Z,4.75
2023-02-06T00:34:45.561Z,5.22
2023-02-06T00:39:38.138Z,4.28
2023-02-06T00:44:30.010Z,4.25
2023-02-06T00:49:21.973Z,4.30
2023-02-06T00:54:15.904Z,4.60
2023-02-06T00:59:08.818Z,4.93
2023-02-06T01:04:00.720Z,4.57
2023-02-06T01:08:52.608Z,4.53
2023-02-06T01:13:44.945Z,4.40
2023-02-06T01:18:37.067Z,4.25
2023-02-06T01:23:28.870Z,4.10
2023-02-06T01:28:20.774Z,4.32
2023-02-06T01:33:12.547Z,4.53
2023-02-06T01:38:04.394Z,4.63
2023-02-06T01:42:56.248Z,4.50
2023-02-06T01:47:49.305Z,4.22
2023-02-06T01:52:41.355Z,4.10
2023-02-06T01:57:34.245Z,4.25
2023-02-06T02:02:27.501Z,3.80
2023-02-06T02:07:44.525Z,4.28
2023-02-06T02:12:36.374Z,4.15
2023-02-06T02:17:52.809Z,3.95
2023-02-06T02:22:51.714Z,3.90
2023-02-06T02:28:08.276Z,3.72
2023-02-06T02:33:36.395Z,3.63
2023-02-06T02:38:50.871Z,4.40
2023-02-06T02:43:51.876Z,3.80
2023-02-06T02:48:46.802Z,3.75
2023-02-06T02:53:38.665Z,3.53
2023-02-06T02:58:33.805Z,3.58
2023-02-06T03:03:29.607Z,3.58
2023-02-06T03:08:34.752Z,3.42
2023-02-06T03:13:43.273Z,3.38
2023-02-06T03:18:50.753Z,3.85
2023-02-06T03:23:44.439Z,3.65
2023-02-06T03:28:39.895Z,3.83
2023-02-06T03:33:43.038Z,3.50
2023-02-06T03:38:34.862Z,3.45
2023-02-06T03:43:28.723Z,3.45
2023-02-06T03:48:59.023Z,3.40
2023-02-06T03:53:52.663Z,3.97
2023-02-06T03:58:44.458Z,3.75
2023-02-06T04:03:36.266Z,3.63
2023-02-06T04:08:28.048Z,3.95
2023-02-06T04:13:19.826Z,3.78
2023-02-06T04:18:11.641Z,3.95
2023-02-06T04:23:03.472Z,3.40
2023-02-06T04:27:55.402Z,3.15
2023-02-06T04:32:47.287Z,3.40
2023-02-06T04:37:39.103Z,3.08
2023-02-06T04:42:30.878Z,3.25
2023-02-06T04:47:22.709Z,3.42
2023-02-06T04:52:14.498Z,3.40
2023-02-06T04:57:06.438Z,3.40
2023-02-06T05:01:58.225Z,3.13
2023-02-06T05:06:50.078Z,3.58
2023-02-06T05:11:41.967Z,3.10
2023-02-06T05:16:33.727Z,3.45
2023-02-06T05:21:25.990Z,3.17
2023-02-06T05:26:17.967Z,3.47
2023-02-06T05:31:09.825Z,3.10
2023-02-06T05:36:06.435Z,3.20
2023-02-06T05:40:58.220Z,3.97
2023-02-06T05:45:49.979Z,2.80
2023-02-06T05:50:43.305Z,3.70
2023-02-06T05:55:39.796Z,2.95
2023-02-06T06:00:31.572Z,3.50
2023-02-06T06:05:23.368Z,3.08
2023-02-06T06:10:15.343Z,3.55
2023-02-06T06:15:07.760Z,3.22
2023-02-06T06:19:59.579Z,3.08
2023-02-06T06:24:51.426Z,3.70
2023-02-06T06:29:43.234Z,3.70
2023-02-06T06:34:35.062Z,3.40
2023-02-06T06:39:26.826Z,3.95
2023-02-06T06:44:18.619Z,3.63
2023-02-06T06:49:10.442Z,3.95
2023-02-06T06:54:02.409Z,3.50
2023-02-06T06:58:54.217Z,3.38
2023-02-06T07:03:48.382Z,3.70
2023-02-06T07:08:42.082Z,3.55
2023-02-06T07:13:34.004Z,3.85
2023-02-06T07:18:25.767Z,3.88
2023-02-06T07:23:17.629Z,3.90
2023-02-06T07:28:09.931Z,3.72
2023-02-06T07:33:01.861Z,3.90
2023-02-06T07:37:54.249Z,4.30
2023-02-06T07:42:46.002Z,3.47
2023-02-06T07:47:46.660Z,3.78
2023-02-06T07:52:38.482Z,3.92
2023-02-06T07:57:30.743Z,4.28
2023-02-06T08:02:22.486Z,4.40
2023-02-06T08:07:16.880Z,3.85
2023-02-06T08:12:10.901Z,3.97
2023-02-06T08:17:03.529Z,3.72
2023-02-06T08:21:55.487Z,4.13
2023-02-06T08:26:47.333Z,3.65
2023-02-06T08:31:40.913Z,4.18
2023-02-06T08:36:33.347Z,4.05
2023-02-06T08:41:28.775Z,3.92
2023-02-06T08:46:21.989Z,4.28
2023-02-06T08:51:14.357Z,4.20
2023-02-06T08:56:09.362Z,3.97
2023-02-06T09:01:16.713Z,3.65
2023-02-06T09:06:10.589Z,4.13
2023-02-06T09:11:15.724Z,3.60
2023-02-06T09:16:08.016Z,3.83
2023-02-06T09:21:04.426Z,3.60
2023-02-06T09:25:56.250Z,3.80
2023-02-06T09:30:48.249Z,4.70
2023-02-06T09:35:40.180Z,3.42
2023-02-06T09:40:33.216Z,4.15
2023-02-06T09:45:27.779Z,4.25
2023-02-06T09:50:27.453Z,4.13
2023-02-06T09:55:29.835Z,3.83
2023-02-06T10:00:36.824Z,4.35
2023-02-06T10:05:43.447Z,3.92
2023-02-06T10:10:50.219Z,3.92
2023-02-06T10:15:46.307Z,3.60
2023-02-06T10:20:48.582Z,3.20
2023-02-06T10:26:06.404Z,3.55
2023-02-06T10:31:07.554Z,3.75
2023-02-06T10:36:03.811Z,3.67
2023-02-06T10:41:13.717Z,3.10
2023-02-06T10:46:24.379Z,3.65
2023-02-06T10:51:26.251Z,3.38
2023-02-06T10:56:22.913Z,3.50
2023-02-06T11:01:25.477Z,3.53
2023-02-06T11:06:21.135Z,3.28
2023-02-06T11:11:21.915Z,3.20
2023-02-06T11:16:21.485Z,3.70
2023-02-06T11:21:17.666Z,3.50
2023-02-06T11:26:15.174Z,3.20
2023-02-06T11:31:08.630Z,3.10
2023-02-06T11:36:00.779Z,3.03
2023-02-06T11:41:19.054Z,3.38
2023-02-06T11:46:24.920Z,3.47
2023-02-06T11:51:16.998Z,3.40
2023-02-06T11:56:18.737Z,3.20
2023-02-06T12:01:21.131Z,3.05
2023-02-06T12:06:32.622Z,2.70
2023-02-06T12:11:34.815Z,3.47
2023-02-06T12:16:27.528Z,2.75
2023-02-06T12:21:41.334Z,2.80
2023-02-06T12:26:35.252Z,3.40
2023-02-06T12:31:32.219Z,2.63
2023-02-06T12:36:27.907Z,3.00
2023-02-06T12:41:25.435Z,2.90
2023-02-06T12:46:21.053Z,3.25
2023-02-06T12:51:20.586Z,3.25
2023-02-06T12:56:35.314Z,2.80
2023-02-06T13:01:42.271Z,2.72
2023-02-06T13:06:44.310Z,2.92
2023-02-06T13:11:39.063Z,3.03
2023-02-06T13:17:07.966Z,3.00
2023-02-06T13:22:16.813Z,2.72
2023-02-06T13:27:08.559Z,2.85
2023-02-06T13:32:12.396Z,2.78
2023-02-06T13:37:26.028Z,2.90
2023-02-06T13:43:00.418Z,2.53
2023-02-06T13:48:05.367Z,2.80
2023-02-06T13:53:06.996Z,2.83
2023-02-06T13:58:32.809Z,2.67
2023-02-06T14:03:29.715Z,2.78
2023-02-06T14:08:44.577Z,2.72
2023-02-06T14:13:55.340Z,3.00
2023-02-06T14:19:04.456Z,2.70
2023-02-06T14:23:59.021Z,2.88
2023-02-06T14:29:19.826Z,2.88
2023-02-06T14:34:33.259Z,3.00
2023-02-06T14:39:48.447Z,2.70
2023-02-06T14:44:41.652Z,2.80
2023-02-06T14:49:35.720Z,2.85
2023-02-06T14:54:29.262Z,2.95
2023-02-06T15:04:17.850Z,3.10
2023-02-06T15:09:26.098Z,2.55
2023-02-06T15:14:29.357Z,2.78
2023-02-06T15:19:25.168Z,3.00
2023-02-06T15:24:17.003Z,3.05
2023-02-06T15:29:19.073Z,2.60
2023-02-06T15:34:15.880Z,2.92
2023-02-06T15:39:09.689Z,2.55
2023-02-06T15:44:07.145Z,2.50
2023-02-06T15:48:59.309Z,3.20
2023-02-06T15:53:53.303Z,3.20
2023-02-06T15:58:45.865Z,2.88
2023-02-06T16:03:41.438Z,3.13
2023-02-06T16:08:35.294Z,2.60
2023-02-06T16:13:28.895Z,2.90
2023-02-06T16:18:32.612Z,3.15
2023-02-06T16:28:23.259Z,2.65
2023-02-06T16:33:34.620Z,3.00
2023-02-06T16:38:26.380Z,2.92
2023-02-06T16:43:18.361Z,2.90
2023-02-06T16:48:14.436Z,2.95
2023-02-06T16:53:07.497Z,2.78
2023-02-06T16:58:00.857Z,2.90
2023-02-06T17:02:53.567Z,2.72
2023-02-06T17:07:45.992Z,2.40
2023-02-06T17:12:37.861Z,2.80
2023-02-06T17:17:29.978Z,3.00
2023-02-06T17:22:21.771Z,5.32
2023-02-06T17:27:18.362Z,3.10
2023-02-06T17:32:10.238Z,3.58
2023-02-06T17:37:02.349Z,3.60
2023-02-06T17:41:54.114Z,4.63
2023-02-06T17:46:47.777Z,4.38
2023-02-06T17:51:41.074Z,4.75
2023-02-06T17:56:33.656Z,4.53
2023-02-06T18:01:25.965Z,5.00
2023-02-06T18:06:19.332Z,3.83
2023-02-06T18:11:12.706Z,3.67
2023-02-06T18:16:04.739Z,3.72
2023-02-06T18:20:56.833Z,3.95
2023-02-06T18:25:48.657Z,3.50
2023-02-06T18:30:41.890Z,3.67
2023-02-06T18:40:29.782Z,3.58
2023-02-06T18:45:22.853Z,3.65
2023-02-06T18:50:14.853Z,4.20
2023-02-06T18:55:08.255Z,3.78
2023-02-06T19:00:00.166Z,3.45
2023-02-06T19:04:52.058Z,3.47
2023-02-06T19:09:43.950Z,3.60
2023-02-06T19:14:35.939Z,4.22
2023-02-06T19:19:27.799Z,3.55
2023-02-06T19:24:19.834Z,3.95
2023-02-06T19:29:14.781Z,3.60
2023-02-06T19:34:07.245Z,3.67
2023-02-06T19:39:00.878Z,4.50
2023-02-06T19:43:54.391Z,3.95
2023-02-06T19:53:45.164Z,4.28
2023-02-06T19:58:37.651Z,3.90
2023-02-06T20:03:29.605Z,4.37
2023-02-06T20:08:21.523Z,4.13
2023-02-06T20:13:13.442Z,4.10
2023-02-06T20:18:05.607Z,3.97
2023-02-06T20:22:57.346Z,3.95
2023-02-06T20:27:49.198Z,4.22
2023-02-06T20:32:41.029Z,4.15
2023-02-06T20:37:32.802Z,3.38
2023-02-06T20:42:27.296Z,4.20
2023-02-06T20:47:19.212Z,3.63
2023-02-06T20:52:11.033Z,3.80
2023-02-06T20:57:02.860Z,4.05
2023-02-06T21:01:54.697Z,4.32
2023-02-06T21:06:48.704Z,4.00
2023-02-06T21:11:45.002Z,4.00
2023-02-06T21:16:40.091Z,3.60
2023-02-06T21:21:32.304Z,3.70
2023-02-06T21:26:24.764Z,3.90
2023-02-06T21:31:19.171Z,4.53
2023-02-06T21:36:11.096Z,4.10
2023-02-06T21:41:06.618Z,3.67
2023-02-06T21:45:58.479Z,3.78
2023-02-06T21:50:50.269Z,3.80
2023-02-06T21:55:43.718Z,4.00
2023-02-06T22:00:35.633Z,3.90
2023-02-06T22:05:28.185Z,3.95
2023-02-06T22:10:19.977Z,3.80
2023-02-06T22:15:11.779Z,3.70
2023-02-06T22:20:03.808Z,4.30
2023-02-06T22:24:55.657Z,3.85
2023-02-06T22:29:47.382Z,4.30
2023-02-06T22:34:39.202Z,3.30
2023-02-06T22:39:30.993Z,3.42
2023-02-06T22:44:22.882Z,3.72
2023-02-06T22:49:14.802Z,4.38
2023-02-06T22:54:09.402Z,3.58
2023-02-06T22:59:10.292Z,3.85
2023-02-06T23:04:03.592Z,3.75
2023-02-06T23:08:56.447Z,4.07
2023-02-06T23:13:54.583Z,3.63
2023-02-06T23:18:46.625Z,3.70
2023-02-06T23:23:39.747Z,3.90
2023-02-06T23:28:31.569Z,4.10
2023-02-06T23:33:23.607Z,3.90
2023-02-06T23:38:15.424Z,3.50
2023-02-06T23:43:07.553Z,3.72
2023-02-06T23:47:59.471Z,3.80
2023-02-06T23:52:51.371Z,3.80
2023-02-06T23:57:43.432Z,3.65
